sensor_id;sensor_type;location;lat;lon;timestamp;pressure;altitude;pressure_sealevel;temperature;humidity
49102;BME280;34913;47.520;19.186;2022-12-11T00:00:50;97804.44;;;5.12;100.00
49102;BME280;34913;47.520;19.186;2022-12-11T00:03:16;97789.66;;;5.11;100.00
49102;BME280;34913;47.520;19.186;2022-12-11T00:05:42;97787.41;;;5.16;100.00
49102;BME280;34913;47.520;19.186;2022-12-11T00:08:09;97796.13;;;5.16;100.00
49102;BME280;34913;47.520;19.186;2022-12-11T00:10:34;97778.63;;;5.07;100.00
49102;BME280;34913;47.520;19.186;2022-12-11T00:13:00;97770.56;;;5.09;100.00
49102;BME280;34913;47.520;19.186;2022-12-11T00:15:26;97779.19;;;5.01;100.00
49102;BME280;34913;47.520;19.186;2022-12-11T00:17:52;97793.88;;;4.94;100.00
49102;BME280;34913;47.520;19.186;2022-12-11T00:20:17;97778.28;;;4.92;100.00
49102;BME280;34913;47.520;19.186;2022-12-11T00:22:42;97774.13;;;4.90;100.00
49102;BME280;34913;47.520;19.186;2022-12-11T00:25:08;97759.31;;;4.89;100.00
49102;BME280;34913;47.520;19.186;2022-12-11T00:27:33;97754.88;;;4.89;100.00
49102;BME280;34913;47.520;19.186;2022-12-11T00:29:59;97770.38;;;4.92;100.00
49102;BME280;34913;47.520;19.186;2022-12-11T00:32:24;97760.69;;;4.93;100.00
49102;BME280;34913;47.520;19.186;2022-12-11T00:34:50;97762.66;;;4.81;100.00
49102;BME280;34913;47.520;19.186;2022-12-11T00:37:16;97771.53;;;4.80;100.00
49102;BME280;34913;47.520;19.186;2022-12-11T00:39:41;97761.31;;;4.77;100.00
49102;BME280;34913;47.520;19.186;2022-12-11T00:42:07;97758.84;;;4.66;100.00
49102;BME280;34913;47.520;19.186;2022-12-11T00:44:33;97763.53;;;4.72;100.00
49102;BME280;34913;47.520;19.186;2022-12-11T00:46:59;97749.47;;;4.63;100.00
49102;BME280;34913;47.520;19.186;2022-12-11T00:49:24;97747.63;;;4.73;100.00
49102;BME280;34913;47.520;19.186;2022-12-11T00:51:49;97757.22;;;4.65;100.00
49102;BME280;34913;47.520;19.186;2022-12-11T00:54:15;97753.66;;;4.56;100.00
49102;BME280;34913;47.520;19.186;2022-12-11T00:56:40;97753.94;;;4.53;100.00
49102;BME280;34913;47.520;19.186;2022-12-11T00:59:05;97759.72;;;4.57;100.00
49102;BME280;34913;47.520;19.186;2022-12-11T01:01:31;97764.72;;;4.60;100.00
49102;BME280;34913;47.520;19.186;2022-12-11T01:03:56;97769.88;;;4.79;100.00
49102;BME280;34913;47.520;19.186;2022-12-11T01:06:24;97756.88;;;4.78;100.00
49102;BME280;34913;47.520;19.186;2022-12-11T01:08:51;97749.44;;;4.73;100.00
49102;BME280;34913;47.520;19.186;2022-12-11T01:11:37;97763.94;;;4.77;100.00
49102;BME280;34913;47.520;19.186;2022-12-11T01:14:02;97773.38;;;4.70;100.00
49102;BME280;34913;47.520;19.186;2022-12-11T01:16:28;97775.63;;;4.55;100.00
49102;BME280;34913;47.520;19.186;2022-12-11T01:18:53;97774.84;;;4.45;100.00
49102;BME280;34913;47.520;19.186;2022-12-11T01:21:18;97786.16;;;4.55;100.00
49102;BME280;34913;47.520;19.186;2022-12-11T01:23:44;97782.59;;;4.46;100.00
49102;BME280;34913;47.520;19.186;2022-12-11T01:26:13;97786.59;;;4.41;100.00
49102;BME280;34913;47.520;19.186;2022-12-11T01:28:39;97769.44;;;4.46;100.00
49102;BME280;34913;47.520;19.186;2022-12-11T01:31:13;97775.53;;;4.47;100.00
49102;BME280;34913;47.520;19.186;2022-12-11T01:33:39;97775.25;;;4.40;100.00
49102;BME280;34913;47.520;19.186;2022-12-11T01:36:10;97785.09;;;4.38;100.00
49102;BME280;34913;47.520;19.186;2022-12-11T01:38:36;97794.09;;;4.36;100.00
49102;BME280;34913;47.520;19.186;2022-12-11T01:41:02;97780.97;;;4.26;100.00
49102;BME280;34913;47.520;19.186;2022-12-11T01:43:27;97774.50;;;4.20;100.00
49102;BME280;34913;47.520;19.186;2022-12-11T01:45:53;97781.41;;;4.12;100.00
49102;BME280;34913;47.520;19.186;2022-12-11T01:48:24;97787.19;;;4.15;100.00
49102;BME280;34913;47.520;19.186;2022-12-11T01:50:55;97774.78;;;4.08;100.00
49102;BME280;34913;47.520;19.186;2022-12-11T01:53:25;97782.94;;;3.85;100.00
49102;BME280;34913;47.520;19.186;2022-12-11T01:55:54;97789.72;;;3.88;100.00
49102;BME280;34913;47.520;19.186;2022-12-11T01:58:24;97796.75;;;3.78;100.00
49102;BME280;34913;47.520;19.186;2022-12-11T02:00:52;97793.84;;;3.61;100.00
49102;BME280;34913;47.520;19.186;2022-12-11T02:03:18;97799.94;;;3.72;100.00
49102;BME280;34913;47.520;19.186;2022-12-11T02:05:43;97805.59;;;3.67;100.00
49102;BME280;34913;47.520;19.186;2022-12-11T02:08:09;97797.16;;;3.44;100.00
49102;BME280;34913;47.520;19.186;2022-12-11T02:10:53;97801.44;;;3.55;100.00
49102;BME280;34913;47.520;19.186;2022-12-11T02:13:30;97800.34;;;3.57;100.00
49102;BME280;34913;47.520;19.186;2022-12-11T02:18:41;97802.53;;;3.33;100.00
49102;BME280;34913;47.520;19.186;2022-12-11T02:21:25;97809.56;;;3.32;100.00
49102;BME280;34913;47.520;19.186;2022-12-11T02:27:41;97801.56;;;3.34;100.00
49102;BME280;34913;47.520;19.186;2022-12-11T02:30:11;97800.44;;;3.36;100.00
49102;BME280;34913;47.520;19.186;2022-12-11T02:32:55;97800.16;;;3.30;100.00
49102;BME280;34913;47.520;19.186;2022-12-11T02:35:25;97808.00;;;3.30;100.00
49102;BME280;34913;47.520;19.186;2022-12-11T02:38:02;97797.66;;;3.28;100.00
49102;BME280;34913;47.520;19.186;2022-12-11T02:40:31;97794.03;;;3.10;100.00
49102;BME280;34913;47.520;19.186;2022-12-11T02:43:02;97794.03;;;3.10;100.00
49102;BME280;34913;47.520;19.186;2022-12-11T02:45:29;97797.59;;;2.99;100.00
49102;BME280;34913;47.520;19.186;2022-12-11T02:47:57;97793.44;;;2.97;100.00
49102;BME280;34913;47.520;19.186;2022-12-11T02:50:25;97791.50;;;2.99;100.00
49102;BME280;34913;47.520;19.186;2022-12-11T02:52:54;97790.97;;;2.95;100.00
49102;BME280;34913;47.520;19.186;2022-12-11T02:55:21;97788.06;;;2.98;100.00
49102;BME280;34913;47.520;19.186;2022-12-11T02:57:48;97788.91;;;2.99;100.00
49102;BME280;34913;47.520;19.186;2022-12-11T03:00:15;97794.97;;;2.99;100.00
49102;BME280;34913;47.520;19.186;2022-12-11T03:02:43;97787.66;;;2.93;100.00
49102;BME280;34913;47.520;19.186;2022-12-11T03:05:10;97781.84;;;2.90;100.00
49102;BME280;34913;47.520;19.186;2022-12-11T03:07:39;97782.81;;;2.89;100.00
49102;BME280;34913;47.520;19.186;2022-12-11T03:10:07;97777.25;;;2.82;100.00
49102;BME280;34913;47.520;19.186;2022-12-11T03:12:36;97766.91;;;2.80;100.00
49102;BME280;34913;47.520;19.186;2022-12-11T03:15:06;97772.69;;;2.74;100.00
49102;BME280;34913;47.520;19.186;2022-12-11T03:20:36;97773.13;;;2.79;100.00
49102;BME280;34913;47.520;19.186;2022-12-11T03:23:08;97776.28;;;2.83;100.00
49102;BME280;34913;47.520;19.186;2022-12-11T03:25:49;97779.16;;;2.70;100.00
49102;BME280;34913;47.520;19.186;2022-12-11T03:30:49;97762.19;;;2.74;100.00
49102;BME280;34913;47.520;19.186;2022-12-11T03:33:26;97766.19;;;2.69;100.00
49102;BME280;34913;47.520;19.186;2022-12-11T03:35:58;97763.44;;;2.70;100.00
49102;BME280;34913;47.520;19.186;2022-12-11T03:38:43;97766.19;;;2.69;100.00
49102;BME280;34913;47.520;19.186;2022-12-11T03:41:11;97754.84;;;2.59;100.00
49102;BME280;34913;47.520;19.186;2022-12-11T03:43:39;97765.88;;;2.62;100.00
49102;BME280;34913;47.520;19.186;2022-12-11T03:46:06;97773.31;;;2.57;100.00
49102;BME280;34913;47.520;19.186;2022-12-11T03:48:37;97778.91;;;2.52;100.00
49102;BME280;34913;47.520;19.186;2022-12-11T03:51:05;97783.88;;;2.46;100.00
49102;BME280;34913;47.520;19.186;2022-12-11T03:53:33;97784.16;;;2.52;100.00
49102;BME280;34913;47.520;19.186;2022-12-11T03:55:59;97785.31;;;2.29;100.00
49102;BME280;34913;47.520;19.186;2022-12-11T03:58:26;97780.06;;;2.29;100.00
49102;BME280;34913;47.520;19.186;2022-12-11T04:00:51;97771.63;;;2.26;100.00
49102;BME280;34913;47.520;19.186;2022-12-11T04:03:17;97764.22;;;2.31;100.00
49102;BME280;34913;47.520;19.186;2022-12-11T04:05:45;97773.09;;;2.18;100.00
49102;BME280;34913;47.520;19.186;2022-12-11T04:08:10;97776.34;;;2.32;100.00
49102;BME280;34913;47.520;19.186;2022-12-11T04:10:36;97778.66;;;2.25;100.00
49102;BME280;34913;47.520;19.186;2022-12-11T04:13:01;97783.50;;;2.30;100.00
49102;BME280;34913;47.520;19.186;2022-12-11T04:15:26;97795.03;;;2.48;100.00
49102;BME280;34913;47.520;19.186;2022-12-11T04:17:52;97797.97;;;2.55;100.00
49102;BME280;34913;47.520;19.186;2022-12-11T04:20:35;97793.09;;;2.50;100.00
49102;BME280;34913;47.520;19.186;2022-12-11T04:23:21;97794.44;;;2.44;100.00
49102;BME280;34913;47.520;19.186;2022-12-11T04:26:11;97793.56;;;2.34;100.00
49102;BME280;34913;47.520;19.186;2022-12-11T04:28:37;97807.91;;;2.30;100.00
49102;BME280;34913;47.520;19.186;2022-12-11T04:31:03;97806.09;;;2.31;100.00
49102;BME280;34913;47.520;19.186;2022-12-11T04:33:29;97808.00;;;2.29;100.00
49102;BME280;34913;47.520;19.186;2022-12-11T04:35:59;97814.19;;;2.28;100.00
49102;BME280;34913;47.520;19.186;2022-12-11T04:38:25;97814.91;;;2.30;100.00
49102;BME280;34913;47.520;19.186;2022-12-11T04:41:02;97801.09;;;1.86;100.00
49102;BME280;34913;47.520;19.186;2022-12-11T04:43:28;97833.44;;;1.85;100.00
49102;BME280;34913;47.520;19.186;2022-12-11T04:48:26;97828.59;;;1.80;100.00
49102;BME280;34913;47.520;19.186;2022-12-11T04:50:51;97832.97;;;1.80;100.00
49102;BME280;34913;47.520;19.186;2022-12-11T04:53:17;97851.78;;;1.74;100.00
49102;BME280;34913;47.520;19.186;2022-12-11T04:55:42;97857.19;;;1.61;100.00
49102;BME280;34913;47.520;19.186;2022-12-11T04:58:07;97862.50;;;1.71;100.00
49102;BME280;34913;47.520;19.186;2022-12-11T05:00:33;97865.00;;;1.72;100.00
49102;BME280;34913;47.520;19.186;2022-12-11T05:02:58;97865.31;;;1.79;100.00
49102;BME280;34913;47.520;19.186;2022-12-11T05:05:24;97865.09;;;1.82;100.00
49102;BME280;34913;47.520;19.186;2022-12-11T05:07:49;97870.47;;;1.69;100.00
49102;BME280;34913;47.520;19.186;2022-12-11T05:10:14;97866.53;;;1.75;100.00
49102;BME280;34913;47.520;19.186;2022-12-11T05:12:40;97872.13;;;1.70;100.00
49102;BME280;34913;47.520;19.186;2022-12-11T05:15:06;97871.78;;;1.75;100.00
49102;BME280;34913;47.520;19.186;2022-12-11T05:17:32;97881.56;;;1.61;100.00
49102;BME280;34913;47.520;19.186;2022-12-11T05:19:57;97880.38;;;1.54;100.00
49102;BME280;34913;47.520;19.186;2022-12-11T05:22:23;97877.63;;;1.56;100.00
49102;BME280;34913;47.520;19.186;2022-12-11T05:24:48;97872.25;;;1.68;100.00
49102;BME280;34913;47.520;19.186;2022-12-11T05:27:13;97880.44;;;1.75;100.00
49102;BME280;34913;47.520;19.186;2022-12-11T05:29:39;97884.72;;;1.76;100.00
49102;BME280;34913;47.520;19.186;2022-12-11T05:32:04;97884.63;;;1.66;100.00
49102;BME280;34913;47.520;19.186;2022-12-11T05:34:30;97883.06;;;1.64;100.00
49102;BME280;34913;47.520;19.186;2022-12-11T05:36:57;97879.97;;;1.70;100.00
49102;BME280;34913;47.520;19.186;2022-12-11T05:39:22;97868.81;;;1.68;100.00
49102;BME280;34913;47.520;19.186;2022-12-11T05:41:48;97884.25;;;1.71;100.00
49102;BME280;34913;47.520;19.186;2022-12-11T05:44:13;97883.41;;;1.71;100.00
49102;BME280;34913;47.520;19.186;2022-12-11T05:46:39;97880.47;;;1.64;100.00
49102;BME280;34913;47.520;19.186;2022-12-11T05:49:05;97874.41;;;1.75;100.00
49102;BME280;34913;47.520;19.186;2022-12-11T05:51:31;97874.63;;;1.72;100.00
49102;BME280;34913;47.520;19.186;2022-12-11T05:53:58;97867.03;;;1.57;100.00
49102;BME280;34913;47.520;19.186;2022-12-11T05:56:27;97868.34;;;1.63;100.00
49102;BME280;34913;47.520;19.186;2022-12-11T05:58:54;97878.06;;;1.72;100.00
49102;BME280;34913;47.520;19.186;2022-12-11T06:01:28;97882.09;;;1.76;100.00
49102;BME280;34913;47.520;19.186;2022-12-11T06:03:55;97893.88;;;1.82;100.00
49102;BME280;34913;47.520;19.186;2022-12-11T06:06:20;97893.22;;;1.89;100.00
49102;BME280;34913;47.520;19.186;2022-12-11T06:08:52;97901.94;;;1.90;100.00
49102;BME280;34913;47.520;19.186;2022-12-11T06:11:18;97910.25;;;1.84;100.00
49102;BME280;34913;47.520;19.186;2022-12-11T06:13:44;97901.81;;;1.80;100.00
49102;BME280;34913;47.520;19.186;2022-12-11T06:16:10;97914.53;;;1.85;100.00
49102;BME280;34913;47.520;19.186;2022-12-11T06:18:40;97916.44;;;1.83;100.00
49102;BME280;34913;47.520;19.186;2022-12-11T06:21:31;97928.81;;;1.81;100.00
49102;BME280;34913;47.520;19.186;2022-12-11T06:23:58;97931.41;;;1.81;100.00
49102;BME280;34913;47.520;19.186;2022-12-11T06:26:24;97938.78;;;1.87;100.00
49102;BME280;34913;47.520;19.186;2022-12-11T06:28:50;97945.09;;;1.73;100.00
49102;BME280;34913;47.520;19.186;2022-12-11T06:31:17;97953.66;;;1.86;100.00
49102;BME280;34913;47.520;19.186;2022-12-11T06:33:43;97947.94;;;1.92;100.00
49102;BME280;34913;47.520;19.186;2022-12-11T06:36:10;97955.66;;;1.94;100.00
49102;BME280;34913;47.520;19.186;2022-12-11T06:38:36;97962.56;;;1.84;100.00
49102;BME280;34913;47.520;19.186;2022-12-11T06:41:05;97963.03;;;1.89;100.00
49102;BME280;34913;47.520;19.186;2022-12-11T06:43:32;97965.84;;;1.97;100.00
49102;BME280;34913;47.520;19.186;2022-12-11T06:45:58;97971.69;;;2.01;100.00
49102;BME280;34913;47.520;19.186;2022-12-11T06:48:24;97981.47;;;1.99;100.00
49102;BME280;34913;47.520;19.186;2022-12-11T06:50:49;97986.56;;;2.00;100.00
49102;BME280;34913;47.520;19.186;2022-12-11T06:53:16;97985.50;;;1.91;100.00
49102;BME280;34913;47.520;19.186;2022-12-11T06:55:41;97993.13;;;1.83;100.00
49102;BME280;34913;47.520;19.186;2022-12-11T06:58:08;98002.03;;;1.92;100.00
49102;BME280;34913;47.520;19.186;2022-12-11T07:00:34;98007.50;;;1.89;100.00
49102;BME280;34913;47.520;19.186;2022-12-11T07:03:00;98007.28;;;1.92;100.00
49102;BME280;34913;47.520;19.186;2022-12-11T07:05:26;97999.66;;;1.78;100.00
49102;BME280;34913;47.520;19.186;2022-12-11T07:07:52;97997.19;;;1.76;100.00
49102;BME280;34913;47.520;19.186;2022-12-11T07:10:18;98010.84;;;1.80;100.00
49102;BME280;34913;47.520;19.186;2022-12-11T07:12:44;98004.41;;;1.73;100.00
49102;BME280;34913;47.520;19.186;2022-12-11T07:15:09;98013.47;;;1.68;100.00
49102;BME280;34913;47.520;19.186;2022-12-11T07:17:35;98003.84;;;1.69;100.00
49102;BME280;34913;47.520;19.186;2022-12-11T07:20:00;98006.34;;;1.71;100.00
49102;BME280;34913;47.520;19.186;2022-12-11T07:22:27;98001.22;;;1.69;100.00
49102;BME280;34913;47.520;19.186;2022-12-11T07:24:53;98011.69;;;1.69;100.00
49102;BME280;34913;47.520;19.186;2022-12-11T07:27:18;98015.63;;;1.75;100.00
49102;BME280;34913;47.520;19.186;2022-12-11T07:29:44;98022.63;;;1.85;100.00
49102;BME280;34913;47.520;19.186;2022-12-11T07:32:09;98021.66;;;1.86;100.00
49102;BME280;34913;47.520;19.186;2022-12-11T07:34:35;98025.69;;;1.79;100.00
49102;BME280;34913;47.520;19.186;2022-12-11T07:37:00;98030.09;;;2.01;100.00
49102;BME280;34913;47.520;19.186;2022-12-11T07:39:26;98029.38;;;1.99;100.00
49102;BME280;34913;47.520;19.186;2022-12-11T07:41:51;98034.22;;;2.15;99.86
49102;BME280;34913;47.520;19.186;2022-12-11T07:44:17;98033.06;;;1.96;100.00
49102;BME280;34913;47.520;19.186;2022-12-11T07:46:43;98040.91;;;1.96;100.00
49102;BME280;34913;47.520;19.186;2022-12-11T07:49:08;98033.88;;;1.97;100.00
49102;BME280;34913;47.520;19.186;2022-12-11T07:51:36;98047.44;;;2.13;100.00
49102;BME280;34913;47.520;19.186;2022-12-11T07:54:07;98054.91;;;2.18;99.87
49102;BME280;34913;47.520;19.186;2022-12-11T07:56:33;98050.72;;;2.27;99.83
49102;BME280;34913;47.520;19.186;2022-12-11T07:59:01;98059.41;;;2.38;99.25
49102;BME280;34913;47.520;19.186;2022-12-11T08:01:28;98069.66;;;2.30;97.20
49102;BME280;34913;47.520;19.186;2022-12-11T08:03:54;98085.59;;;2.27;98.72
49102;BME280;34913;47.520;19.186;2022-12-11T08:06:25;98093.91;;;2.32;98.03
49102;BME280;34913;47.520;19.186;2022-12-11T08:08:53;98086.91;;;2.33;97.97
49102;BME280;34913;47.520;19.186;2022-12-11T08:11:18;98092.59;;;2.38;98.25
49102;BME280;34913;47.520;19.186;2022-12-11T08:13:43;98090.34;;;2.33;96.64
49102;BME280;34913;47.520;19.186;2022-12-11T08:16:11;98096.16;;;2.37;96.73
49102;BME280;34913;47.520;19.186;2022-12-11T08:18:38;98097.22;;;2.45;95.98
49102;BME280;34913;47.520;19.186;2022-12-11T08:21:23;98112.22;;;2.55;95.53
49102;BME280;34913;47.520;19.186;2022-12-11T08:23:49;98109.25;;;2.48;93.95
49102;BME280;34913;47.520;19.186;2022-12-11T08:26:24;98122.09;;;2.40;94.80
49102;BME280;34913;47.520;19.186;2022-12-11T08:28:49;98126.38;;;2.41;95.61
49102;BME280;34913;47.520;19.186;2022-12-11T08:31:16;98124.13;;;2.36;95.60
49102;BME280;34913;47.520;19.186;2022-12-11T08:33:42;98125.31;;;2.43;95.62
49102;BME280;34913;47.520;19.186;2022-12-11T08:36:11;98138.16;;;2.46;94.71
49102;BME280;34913;47.520;19.186;2022-12-11T08:38:37;98134.00;;;2.44;93.25
49102;BME280;34913;47.520;19.186;2022-12-11T08:43:34;98138.03;;;2.48;93.24
49102;BME280;34913;47.520;19.186;2022-12-11T08:45:59;98147.22;;;2.42;92.41
49102;BME280;34913;47.520;19.186;2022-12-11T08:48:24;98157.78;;;2.63;91.82
49102;BME280;34913;47.520;19.186;2022-12-11T08:50:50;98149.31;;;2.60;91.62
49102;BME280;34913;47.520;19.186;2022-12-11T08:53:15;98157.53;;;2.66;92.29
49102;BME280;34913;47.520;19.186;2022-12-11T08:55:41;98168.88;;;2.56;91.87
49102;BME280;34913;47.520;19.186;2022-12-11T08:58:06;98168.03;;;2.55;91.90
49102;BME280;34913;47.520;19.186;2022-12-11T09:00:31;98172.66;;;2.63;91.13
49102;BME280;34913;47.520;19.186;2022-12-11T09:02:57;98180.88;;;2.69;89.76
49102;BME280;34913;47.520;19.186;2022-12-11T09:05:22;98186.72;;;2.62;89.99
49102;BME280;34913;47.520;19.186;2022-12-11T09:07:48;98191.22;;;2.60;90.13
49102;BME280;34913;47.520;19.186;2022-12-11T09:10:13;98187.53;;;2.51;90.30
49102;BME280;34913;47.520;19.186;2022-12-11T09:12:39;98188.50;;;2.61;91.64
49102;BME280;34913;47.520;19.186;2022-12-11T09:15:05;98186.69;;;2.73;91.22
49102;BME280;34913;47.520;19.186;2022-12-11T09:17:32;98187.28;;;2.65;91.62
49102;BME280;34913;47.520;19.186;2022-12-11T09:19:58;98188.13;;;2.77;90.48
49102;BME280;34913;47.520;19.186;2022-12-11T09:22:23;98170.66;;;2.55;90.68
49102;BME280;34913;47.520;19.186;2022-12-11T09:24:49;98183.25;;;2.50;89.43
49102;BME280;34913;47.520;19.186;2022-12-11T09:27:14;98179.72;;;2.40;90.98
49102;BME280;34913;47.520;19.186;2022-12-11T09:29:39;98190.91;;;2.53;91.74
49102;BME280;34913;47.520;19.186;2022-12-11T09:32:05;98186.94;;;2.59;89.14
49102;BME280;34913;47.520;19.186;2022-12-11T09:34:31;98182.66;;;2.58;87.66
49102;BME280;34913;47.520;19.186;2022-12-11T09:36:56;98184.81;;;2.64;89.71
49102;BME280;34913;47.520;19.186;2022-12-11T09:39:21;98200.13;;;2.68;88.89
49102;BME280;34913;47.520;19.186;2022-12-11T09:46:58;98185.63;;;2.64;87.96
49102;BME280;34913;47.520;19.186;2022-12-11T09:49:31;98176.56;;;2.68;88.60
49102;BME280;34913;47.520;19.186;2022-12-11T09:52:05;98181.34;;;2.63;87.91
49102;BME280;34913;47.520;19.186;2022-12-11T09:54:31;98169.22;;;2.62;86.34
49102;BME280;34913;47.520;19.186;2022-12-11T10:02:24;98174.44;;;2.51;87.26
49102;BME280;34913;47.520;19.186;2022-12-11T10:07:40;98163.50;;;2.57;87.71
49102;BME280;34913;47.520;19.186;2022-12-11T10:10:42;98164.13;;;2.38;86.62
49102;BME280;34913;47.520;19.186;2022-12-11T10:16:27;98168.63;;;2.36;86.87
49102;BME280;34913;47.520;19.186;2022-12-11T10:18:58;98165.53;;;2.54;86.06
49102;BME280;34913;47.520;19.186;2022-12-11T10:21:24;98162.19;;;2.63;85.90
49102;BME280;34913;47.520;19.186;2022-12-11T10:23:59;98188.84;;;2.57;86.04
49102;BME280;34913;47.520;19.186;2022-12-11T10:26:27;98192.44;;;2.56;86.14
49102;BME280;34913;47.520;19.186;2022-12-11T10:28:58;98196.09;;;2.64;85.28
49102;BME280;34913;47.520;19.186;2022-12-11T10:31:53;98199.69;;;2.63;85.66
49102;BME280;34913;47.520;19.186;2022-12-11T10:34:32;98210.88;;;2.65;85.36
49102;BME280;34913;47.520;19.186;2022-12-11T10:36:58;98202.66;;;2.59;85.40
49102;BME280;34913;47.520;19.186;2022-12-11T10:39:24;98202.91;;;2.56;84.72
49102;BME280;34913;47.520;19.186;2022-12-11T10:41:51;98192.53;;;2.65;85.62
49102;BME280;34913;47.520;19.186;2022-12-11T10:44:20;98198.47;;;2.67;84.21
49102;BME280;34913;47.520;19.186;2022-12-11T10:46:47;98205.84;;;2.73;83.04
49102;BME280;34913;47.520;19.186;2022-12-11T10:49:22;98204.44;;;2.58;83.89
49102;BME280;34913;47.520;19.186;2022-12-11T10:51:49;98213.22;;;2.68;84.02
49102;BME280;34913;47.520;19.186;2022-12-11T10:54:36;98220.03;;;2.71;84.34
49102;BME280;34913;47.520;19.186;2022-12-11T10:57:07;98231.34;;;2.60;83.89
49102;BME280;34913;47.520;19.186;2022-12-11T11:02:36;98228.84;;;2.47;83.89
49102;BME280;34913;47.520;19.186;2022-12-11T11:07:37;98209.47;;;2.61;83.28
49102;BME280;34913;47.520;19.186;2022-12-11T11:12:48;98229.69;;;2.70;85.64
49102;BME280;34913;47.520;19.186;2022-12-11T11:17:52;98228.38;;;2.54;82.57
49102;BME280;34913;47.520;19.186;2022-12-11T11:20:30;98228.03;;;2.47;82.78
49102;BME280;34913;47.520;19.186;2022-12-11T11:23:01;98215.41;;;2.63;82.99
49102;BME280;34913;47.520;19.186;2022-12-11T11:25:29;98221.13;;;2.57;83.64
49102;BME280;34913;47.520;19.186;2022-12-11T11:27:59;98209.22;;;2.64;83.40
49102;BME280;34913;47.520;19.186;2022-12-11T11:30:30;98222.88;;;2.68;83.74
49102;BME280;34913;47.520;19.186;2022-12-11T11:33:31;98221.34;;;2.65;83.35
49102;BME280;34913;47.520;19.186;2022-12-11T11:35:56;98233.34;;;2.68;83.85
49102;BME280;34913;47.520;19.186;2022-12-11T11:38:27;98230.50;;;2.71;83.71
49102;BME280;34913;47.520;19.186;2022-12-11T11:41:03;98243.97;;;2.77;83.87
49102;BME280;34913;47.520;19.186;2022-12-11T11:43:45;98251.00;;;2.66;82.56
49102;BME280;34913;47.520;19.186;2022-12-11T11:51:26;98249.66;;;2.60;82.09
49102;BME280;34913;47.520;19.186;2022-12-11T11:53:57;98253.00;;;2.73;82.16
49102;BME280;34913;47.520;19.186;2022-12-11T11:56:33;98258.72;;;2.78;81.06
49102;BME280;34913;47.520;19.186;2022-12-11T12:01:32;98256.47;;;2.74;81.16
49102;BME280;34913;47.520;19.186;2022-12-11T12:03:57;98257.75;;;2.68;81.20
49102;BME280;34913;47.520;19.186;2022-12-11T12:09:16;98269.09;;;2.80;81.41
49102;BME280;34913;47.520;19.186;2022-12-11T12:18:11;98282.78;;;2.72;82.86
49102;BME280;34913;47.520;19.186;2022-12-11T12:21:08;98283.47;;;2.97;83.34
49102;BME280;34913;47.520;19.186;2022-12-11T12:24:05;98279.09;;;2.86;81.62
49102;BME280;34913;47.520;19.186;2022-12-11T12:26:35;98272.16;;;2.96;81.17
49102;BME280;34913;47.520;19.186;2022-12-11T12:29:24;98281.09;;;3.05;81.00
49102;BME280;34913;47.520;19.186;2022-12-11T12:32:06;98277.50;;;3.06;80.83
49102;BME280;34913;47.520;19.186;2022-12-11T12:37:45;98280.50;;;2.90;81.75
49102;BME280;34913;47.520;19.186;2022-12-11T12:47:41;98285.13;;;2.98;81.25
49102;BME280;34913;47.520;19.186;2022-12-11T12:50:16;98281.22;;;3.03;81.23
49102;BME280;34913;47.520;19.186;2022-12-11T12:52:43;98285.84;;;3.11;81.03
49102;BME280;34913;47.520;19.186;2022-12-11T12:58:06;98303.81;;;3.16;80.71
49102;BME280;34913;47.520;19.186;2022-12-11T13:00:37;98297.16;;;3.12;80.64
49102;BME280;34913;47.520;19.186;2022-12-11T13:03:23;98308.47;;;3.12;80.90
49102;BME280;34913;47.520;19.186;2022-12-11T13:06:14;98323.25;;;3.24;80.30
49102;BME280;34913;47.520;19.186;2022-12-11T13:08:46;98328.00;;;3.19;80.40
49102;BME280;34913;47.520;19.186;2022-12-11T13:11:15;98334.22;;;3.18;80.20
49102;BME280;34913;47.520;19.186;2022-12-11T13:13:44;98336.47;;;3.23;79.85
49102;BME280;34913;47.520;19.186;2022-12-11T13:18:39;98356.38;;;3.14;79.07
49102;BME280;34913;47.520;19.186;2022-12-11T13:21:34;98350.16;;;3.15;79.39
49102;BME280;34913;47.520;19.186;2022-12-11T13:24:24;98349.25;;;3.16;80.18
49102;BME280;34913;47.520;19.186;2022-12-11T13:26:50;98355.31;;;3.17;79.82
49102;BME280;34913;47.520;19.186;2022-12-11T13:32:22;98348.66;;;3.01;80.23
49102;BME280;34913;47.520;19.186;2022-12-11T13:34:56;98367.09;;;3.11;79.86
49102;BME280;34913;47.520;19.186;2022-12-11T13:37:34;98361.03;;;3.11;81.79
49102;BME280;34913;47.520;19.186;2022-12-11T13:40:14;98373.06;;;3.13;79.43
49102;BME280;34913;47.520;19.186;2022-12-11T13:45:22;98373.66;;;3.17;79.89
49102;BME280;34913;47.520;19.186;2022-12-11T13:47:50;98372.34;;;3.22;79.16
49102;BME280;34913;47.520;19.186;2022-12-11T13:50:31;98374.00;;;3.23;79.13
49102;BME280;34913;47.520;19.186;2022-12-11T13:52:59;98376.75;;;3.11;79.34
49102;BME280;34913;47.520;19.186;2022-12-11T13:55:27;98374.50;;;3.17;79.87
49102;BME280;34913;47.520;19.186;2022-12-11T13:57:54;98372.84;;;3.16;80.96
49102;BME280;34913;47.520;19.186;2022-12-11T14:00:32;98374.47;;;3.28;80.32
49102;BME280;34913;47.520;19.186;2022-12-11T14:03:00;98389.13;;;3.31;79.19
49102;BME280;34913;47.520;19.186;2022-12-11T14:05:29;98392.47;;;3.33;79.84
49102;BME280;34913;47.520;19.186;2022-12-11T14:07:56;98395.34;;;3.19;79.55
49102;BME280;34913;47.520;19.186;2022-12-11T14:10:25;98397.13;;;3.07;80.53
49102;BME280;34913;47.520;19.186;2022-12-11T14:15:16;98409.63;;;3.15;80.93
49102;BME280;34913;47.520;19.186;2022-12-11T14:17:42;98410.59;;;3.14;81.19
49102;BME280;34913;47.520;19.186;2022-12-11T14:20:34;98419.41;;;3.24;79.97
49102;BME280;34913;47.520;19.186;2022-12-11T14:23:17;98420.84;;;3.17;81.21
49102;BME280;34913;47.520;19.186;2022-12-11T14:25:51;98423.81;;;3.01;80.81
49102;BME280;34913;47.520;19.186;2022-12-11T14:28:17;98429.41;;;3.07;79.08
49102;BME280;34913;47.520;19.186;2022-12-11T14:30:49;98436.22;;;3.10;80.21